createdAt,value
2019-04-11T00:00:37.970Z,74.80
2019-04-11T00:03:06.435Z,75.50
2019-04-11T00:05:35.104Z,75.70
2019-04-11T00:08:03.851Z,75.60
2019-04-11T00:10:33.303Z,75.80
2019-04-11T00:13:14.283Z,76.10
2019-04-11T00:15:32.816Z,74.50
2019-04-11T00:18:02.720Z,74.60
2019-04-11T00:20:31.886Z,73.60
2019-04-11T00:23:01.711Z,73.30
2019-04-11T00:25:31.603Z,73.40
2019-04-11T00:28:01.449Z,73.20
2019-04-11T00:30:30.336Z,73.90
2019-04-11T00:33:00.091Z,73.30
2019-04-11T00:35:28.703Z,72.40
2019-04-11T00:37:57.200Z,72.80
2019-04-11T00:40:26.877Z,73.20
2019-04-11T00:42:55.874Z,72.60
2019-04-11T00:45:24.466Z,74.00
2019-04-11T00:47:53.266Z,73.10
2019-04-11T00:50:21.764Z,73.80
2019-04-11T00:52:50.213Z,73.50
2019-04-11T00:55:19.622Z,72.40
2019-04-11T00:57:48.188Z,73.10
2019-04-11T01:00:17.053Z,73.00
2019-04-11T01:02:45.568Z,72.20
2019-04-11T01:05:15.072Z,72.40
2019-04-11T01:07:43.935Z,72.60
2019-04-11T01:10:12.477Z,72.70
2019-04-11T01:12:41.012Z,72.40
2019-04-11T01:15:13.352Z,71.60
2019-04-11T01:17:42.384Z,71.60
2019-04-11T01:20:11.296Z,72.10
2019-04-11T01:22:40.547Z,72.10
2019-04-11T01:25:10.366Z,72.10
2019-04-11T01:27:39.973Z,71.20
2019-04-11T01:30:11.950Z,72.50
2019-04-11T01:32:40.569Z,72.60
2019-04-11T01:35:09.107Z,71.30
2019-04-11T01:37:39.745Z,71.30
2019-04-11T01:40:09.716Z,71.70
2019-04-11T01:42:39.700Z,71.60
2019-04-11T01:45:09.576Z,71.20
2019-04-11T01:47:39.762Z,70.80
2019-04-11T01:50:08.649Z,71.40
2019-04-11T01:52:38.287Z,71.00
2019-04-11T01:55:08.248Z,70.80
2019-04-11T01:57:38.124Z,71.30
2019-04-11T02:00:08.230Z,71.80
2019-04-11T02:02:46.506Z,71.70
2019-04-11T02:05:29.350Z,72.10
2019-04-11T02:07:58.722Z,71.70
2019-04-11T02:10:28.712Z,69.80
2019-04-11T02:12:57.684Z,70.30
2019-04-11T02:15:28.733Z,69.90
2019-04-11T02:17:57.290Z,69.90
2019-04-11T02:20:27.147Z,69.50
2019-04-11T02:22:57.466Z,70.10
2019-04-11T02:25:30.560Z,70.30
2019-04-11T02:28:01.190Z,71.50
2019-04-11T02:30:30.873Z,70.30
2019-04-11T02:33:00.350Z,70.20
2019-04-11T02:35:30.903Z,70.20
2019-04-11T02:37:59.861Z,70.60
2019-04-11T02:40:30.004Z,71.60
2019-04-11T02:43:00.911Z,71.30
2019-04-11T02:45:43.282Z,71.40
2019-04-11T02:48:01.584Z,71.80
2019-04-11T02:50:32.027Z,71.10
2019-04-11T02:53:02.453Z,70.50
2019-04-11T02:55:31.719Z,70.20
2019-04-11T02:58:01.824Z,70.80
2019-04-11T03:00:32.726Z,70.10
2019-04-11T03:03:03.409Z,70.40
2019-04-11T03:05:34.483Z,70.10
2019-04-11T03:08:06.806Z,69.80
2019-04-11T03:10:33.618Z,71.00
2019-04-11T03:13:02.999Z,71.00
2019-04-11T03:15:43.055Z,70.20
2019-04-11T03:18:06.624Z,69.90
2019-04-11T03:20:40.734Z,70.00
2019-04-11T03:23:07.604Z,70.10
2019-04-11T03:25:36.360Z,70.80
2019-04-11T03:28:09.611Z,70.30
2019-04-11T03:30:54.025Z,69.10
2019-04-11T03:36:36.974Z,68.40
2019-04-11T03:38:31.369Z,68.50
2019-04-11T03:40:57.922Z,68.20
2019-04-11T03:43:21.143Z,69.10
2019-04-11T03:46:01.889Z,69.50
2019-04-11T03:48:27.302Z,70.00
2019-04-11T03:50:42.475Z,70.10
2019-04-11T03:53:11.709Z,69.40
2019-04-11T03:55:41.246Z,69.10
2019-04-11T03:58:09.830Z,68.80
2019-04-11T04:00:43.843Z,68.50
2019-04-11T04:03:11.397Z,68.90
2019-04-11T04:05:41.985Z,70.00
2019-04-11T04:08:13.004Z,70.00
2019-04-11T04:10:43.701Z,69.90
2019-04-11T04:13:16.966Z,70.00
2019-04-11T04:16:02.720Z,69.40
2019-04-11T04:18:29.732Z,69.60
2019-04-11T04:20:59.846Z,69.40
2019-04-11T04:23:31.461Z,70.00
2019-04-11T04:26:03.214Z,70.20
2019-04-11T04:28:33.698Z,69.40
2019-04-11T04:31:04.432Z,68.80
2019-04-11T04:33:35.426Z,69.10
2019-04-11T04:36:06.487Z,69.70
2019-04-11T04:38:35.452Z,70.30
2019-04-11T04:41:17.564Z,70.20
2019-04-11T04:43:38.779Z,70.80
2019-04-11T04:46:25.063Z,70.70
2019-04-11T04:48:38.085Z,69.80
2019-04-11T04:51:10.852Z,69.80
2019-04-11T04:53:39.032Z,69.10
2019-04-11T04:56:09.033Z,70.20
2019-04-11T04:58:38.007Z,71.00
2019-04-11T05:01:07.111Z,71.20
2019-04-11T05:03:35.959Z,71.90
2019-04-11T05:06:04.580Z,72.50
2019-04-11T05:08:34.592Z,73.20
2019-04-11T05:11:04.517Z,74.00
2019-04-11T05:13:34.456Z,74.80
2019-04-11T05:16:13.081Z,75.00
2019-04-11T05:18:34.278Z,75.40
2019-04-11T05:21:03.371Z,75.00
2019-04-11T05:23:32.115Z,75.10
2019-04-11T05:26:01.652Z,75.40
2019-04-11T05:28:30.258Z,75.90
2019-04-11T05:30:58.992Z,76.30
2019-04-11T05:33:27.697Z,75.70
2019-04-11T05:35:56.507Z,76.50
2019-04-11T05:38:25.368Z,77.20
2019-04-11T05:40:54.578Z,76.30
2019-04-11T05:43:28.076Z,76.40
2019-04-11T05:45:55.239Z,79.80
2019-04-11T05:48:31.148Z,78.80
2019-04-11T05:51:00.510Z,79.20
2019-04-11T05:53:32.719Z,79.30
2019-04-11T05:56:01.592Z,80.00
2019-04-11T05:58:32.479Z,79.80
2019-04-11T06:01:14.706Z,80.50
2019-04-11T06:03:45.367Z,79.30
2019-04-11T06:06:16.350Z,79.80
2019-04-11T06:08:46.117Z,79.80
2019-04-11T06:11:28.775Z,79.10
2019-04-11T06:14:03.836Z,79.60
2019-04-11T06:16:39.572Z,78.80
2019-04-11T06:19:04.035Z,79.10
2019-04-11T06:21:44.269Z,78.50
2019-04-11T06:24:32.127Z,78.60
2019-04-11T06:27:09.253Z,78.40
2019-04-11T06:29:40.993Z,79.20
2019-04-11T06:32:29.933Z,79.40
2019-04-11T06:35:03.956Z,78.90
2019-04-11T06:37:41.336Z,79.20
2019-04-11T06:40:11.800Z,78.80
2019-04-11T06:42:56.923Z,79.20
2019-04-11T06:45:29.479Z,78.60
2019-04-11T06:48:09.406Z,78.90
2019-04-11T06:50:43.772Z,78.60
2019-04-11T06:53:13.173Z,79.30
2019-04-11T06:56:00.590Z,78.60
2019-04-11T06:58:31.822Z,77.00
2019-04-11T07:01:02.038Z,77.90
2019-04-11T07:03:36.262Z,78.20
2019-04-11T07:06:07.003Z,78.40
2019-04-11T07:08:54.630Z,77.70
2019-04-11T07:11:25.545Z,77.60
2019-04-11T07:14:01.981Z,76.60
2019-04-11T07:16:31.817Z,76.60
2019-04-11T07:19:17.684Z,77.00
2019-04-11T07:21:46.217Z,76.80
2019-04-11T07:24:32.319Z,75.70
2019-04-11T07:27:03.115Z,75.60
2019-04-11T07:29:36.469Z,74.40
2019-04-11T07:32:09.562Z,74.00
2019-04-11T07:34:56.576Z,73.60
2019-04-11T07:37:32.621Z,72.60
2019-04-11T07:40:13.108Z,72.60
2019-04-11T07:42:43.681Z,73.00
2019-04-11T07:45:26.407Z,73.20
2019-04-11T07:48:02.795Z,73.30
2019-04-11T07:50:31.349Z,71.60
2019-04-11T07:53:08.562Z,71.50
2019-04-11T07:55:38.860Z,72.30
2019-04-11T07:58:13.040Z,72.90
2019-04-11T08:00:59.581Z,71.80
2019-04-11T08:03:46.963Z,71.80
2019-04-11T08:06:33.300Z,71.30
2019-04-11T08:09:13.172Z,70.70
2019-04-11T08:11:44.254Z,71.00
2019-04-11T08:14:24.506Z,71.00
2019-04-11T08:16:57.802Z,71.20
2019-04-11T08:19:31.105Z,69.70
2019-04-11T08:22:02.941Z,68.70
2019-04-11T08:24:50.988Z,69.80
2019-04-11T08:27:31.659Z,69.80
2019-04-11T08:30:05.013Z,70.10
2019-04-11T08:32:38.277Z,70.50
2019-04-11T08:35:26.284Z,70.60
2019-04-11T08:37:56.510Z,69.10
2019-04-11T08:40:33.646Z,69.30
2019-04-11T08:43:04.679Z,71.00
2019-04-11T08:45:34.926Z,70.30
2019-04-11T08:48:08.826Z,69.20
2019-04-11T08:50:51.182Z,69.30
2019-04-11T08:53:21.616Z,69.00
2019-04-11T08:56:02.259Z,68.40
2019-04-11T08:58:49.038Z,68.70
2019-04-11T09:01:25.006Z,66.80
2019-04-11T09:04:08.765Z,66.90
2019-04-11T09:06:36.831Z,67.10
2019-04-11T09:09:23.619Z,64.20
2019-04-11T09:11:56.095Z,64.30
2019-04-11T09:14:36.032Z,65.60
2019-04-11T09:17:15.007Z,66.30
2019-04-11T09:19:47.869Z,65.70
2019-04-11T09:22:33.277Z,65.30
2019-04-11T09:25:09.352Z,66.20
2019-04-11T09:27:47.108Z,65.10
2019-04-11T09:30:33.705Z,66.00
2019-04-11T09:33:04.725Z,64.40
2019-04-11T09:35:44.008Z,63.80
2019-04-11T09:38:20.256Z,64.70
2019-04-11T09:41:08.020Z,66.00
2019-04-11T09:43:38.635Z,65.70
2019-04-11T09:46:12.379Z,64.50
2019-04-11T09:48:51.494Z,65.30
2019-04-11T09:51:40.296Z,65.00
2019-04-11T09:54:11.964Z,64.10
2019-04-11T09:57:00.131Z,63.10
2019-04-11T09:59:33.453Z,63.00
2019-04-11T10:02:16.776Z,63.90
2019-04-11T10:04:48.071Z,63.10
2019-04-11T10:07:28.095Z,63.20
2019-04-11T10:10:04.685Z,62.90
2019-04-11T10:12:42.424Z,63.70
2019-04-11T10:15:13.553Z,61.50
2019-04-11T10:17:50.503Z,61.60
2019-04-11T10:20:21.692Z,61.30
2019-04-11T10:23:08.237Z,61.20
2019-04-11T10:25:39.341Z,62.30
2019-04-11T10:28:29.334Z,62.00
2019-04-11T10:31:02.542Z,62.00
2019-04-11T10:33:49.112Z,64.10
2019-04-11T10:36:29.351Z,62.70
2019-04-11T10:39:00.545Z,60.80
2019-04-11T10:41:31.025Z,60.60
2019-04-11T10:43:59.502Z,59.90
2019-04-11T10:46:41.757Z,60.70
2019-04-11T10:49:17.882Z,60.70
2019-04-11T10:51:53.949Z,60.90
2019-04-11T10:54:23.869Z,59.70
2019-04-11T10:56:54.308Z,58.50
2019-04-11T10:59:26.564Z,59.50
2019-04-11T11:02:06.521Z,59.70
2019-04-11T11:04:37.068Z,59.10
2019-04-11T11:07:08.536Z,58.10
2019-04-11T11:10:03.729Z,57.20
2019-04-11T11:12:37.128Z,58.20
2019-04-11T11:15:09.445Z,59.00
2019-04-11T11:18:20.667Z,58.00
2019-04-11T11:20:43.001Z,58.80
2019-04-11T11:23:26.785Z,58.50
2019-04-11T11:26:07.011Z,58.80
2019-04-11T11:28:37.305Z,58.50
2019-04-11T11:31:07.852Z,59.40
2019-04-11T11:33:37.073Z,61.20
2019-04-11T11:36:13.147Z,60.20
2019-04-11T11:38:43.999Z,59.30
2019-04-11T11:41:20.685Z,59.70
2019-04-11T11:43:51.673Z,60.30
2019-04-11T11:46:38.350Z,60.80
2019-04-11T11:49:08.004Z,60.60
2019-04-11T11:51:38.405Z,60.10
2019-04-11T11:54:11.697Z,60.20
2019-04-11T11:56:42.477Z,60.20
2019-04-11T11:59:32.205Z,60.00
2019-04-11T12:02:02.478Z,60.30
2019-04-11T12:04:44.843Z,60.70
2019-04-11T12:07:18.932Z,60.70
2019-04-11T12:10:06.818Z,61.40
2019-04-11T12:12:38.024Z,62.10
2019-04-11T12:15:17.224Z,61.60
2019-04-11T12:18:06.718Z,59.90
2019-04-11T12:20:44.491Z,60.00
2019-04-11T12:23:13.023Z,60.30
2019-04-11T12:25:43.167Z,60.00
2019-04-11T12:28:17.411Z,59.10
2019-04-11T12:30:48.151Z,59.50
2019-04-11T12:33:30.956Z,60.60
2019-04-11T12:36:03.754Z,60.20
2019-04-11T12:38:34.106Z,58.90
2019-04-11T12:41:06.629Z,59.10
2019-04-11T12:43:36.993Z,58.50
2019-04-11T12:46:29.713Z,58.50
2019-04-11T12:48:55.454Z,58.60
2019-04-11T12:51:34.267Z,57.40
2019-04-11T12:54:03.147Z,58.40
2019-04-11T12:56:42.490Z,58.20
2019-04-11T12:59:10.984Z,58.90
2019-04-11T13:01:46.846Z,58.10
2019-04-11T13:04:16.963Z,58.50
2019-04-11T13:07:03.638Z,59.80
2019-04-11T13:09:39.475Z,61.70
2019-04-11T13:12:12.324Z,60.00
2019-04-11T13:14:42.714Z,59.20
2019-04-11T13:17:22.230Z,59.70
2019-04-11T13:20:08.532Z,60.00
2019-04-11T13:22:39.503Z,61.10
2019-04-11T13:25:12.514Z,61.00
2019-04-11T13:27:48.057Z,60.50
2019-04-11T13:30:30.194Z,61.10
2019-04-11T13:32:58.747Z,61.70
2019-04-11T13:35:44.994Z,61.20
2019-04-11T13:38:15.369Z,60.40
2019-04-11T13:40:45.732Z,60.40
2019-04-11T13:43:28.769Z,60.80
2019-04-11T13:46:04.450Z,61.50
2019-04-11T13:48:50.588Z,62.00
2019-04-11T13:51:23.919Z,62.40
2019-04-11T13:54:11.045Z,62.40
2019-04-11T13:56:57.760Z,62.60
2019-04-11T13:59:36.936Z,63.50
2019-04-11T14:02:15.625Z,62.80
2019-04-11T14:04:49.069Z,62.10
2019-04-11T14:07:21.238Z,62.10
2019-04-11T14:09:51.292Z,62.70
2019-04-11T14:12:19.770Z,61.80
2019-04-11T14:14:51.782Z,60.70
2019-04-11T14:17:41.547Z,60.20
2019-04-11T14:20:13.857Z,59.70
2019-04-11T14:22:44.136Z,61.00
2019-04-11T14:25:23.577Z,60.40
2019-04-11T14:27:53.937Z,59.10
2019-04-11T14:30:39.278Z,60.70
2019-04-11T14:33:07.915Z,60.10
2019-04-11T14:35:37.993Z,59.90
2019-04-11T14:38:10.841Z,59.00
2019-04-11T14:41:01.484Z,60.70
2019-04-11T14:43:28.370Z,60.30
2019-04-11T14:46:00.412Z,60.10
2019-04-11T14:48:37.844Z,60.20
2019-04-11T14:51:11.141Z,60.60
2019-04-11T14:53:56.609Z,58.40
2019-04-11T14:56:29.776Z,59.00
2019-04-11T14:59:18.113Z,59.60
2019-04-11T15:01:48.470Z,59.50
2019-04-11T15:04:34.999Z,60.00
2019-04-11T15:07:05.199Z,60.60
2019-04-11T15:09:51.163Z,59.40
2019-04-11T15:12:27.272Z,58.70
2019-04-11T15:15:13.896Z,59.00
2019-04-11T15:17:43.846Z,59.20
2019-04-11T15:20:18.084Z,58.60
2019-04-11T15:22:48.210Z,59.70
2019-04-11T15:25:18.565Z,59.10
2019-04-11T15:28:04.809Z,58.50
2019-04-11T15:30:50.119Z,59.20
2019-04-11T15:33:23.168Z,59.70
2019-04-11T15:35:58.046Z,60.30
2019-04-11T15:38:44.508Z,59.40
2019-04-11T15:41:13.877Z,60.40
2019-04-11T15:43:49.858Z,59.70
2019-04-11T15:46:25.958Z,59.70
2019-04-11T15:49:20.442Z,60.60
2019-04-11T15:51:44.223Z,61.10
2019-04-11T15:54:14.656Z,61.80
2019-04-11T15:56:45.558Z,59.70
2019-04-11T15:59:15.642Z,57.90
2019-04-11T16:01:51.958Z,58.40
2019-04-11T16:04:31.313Z,58.50
2019-04-11T16:07:14.681Z,57.60
2019-04-11T16:09:44.873Z,57.90
2019-04-11T16:12:17.984Z,60.00
2019-04-11T16:15:05.996Z,60.40
2019-04-11T16:17:36.119Z,60.80
2019-04-11T16:20:07.917Z,61.10
2019-04-11T16:22:55.926Z,60.30
2019-04-11T16:25:28.927Z,59.70
2019-04-11T16:28:06.570Z,61.40
2019-04-11T16:30:34.450Z,61.30
2019-04-11T16:33:07.557Z,61.90
2019-04-11T16:35:56.914Z,61.40
2019-04-11T16:38:26.614Z,61.00
2019-04-11T16:41:13.126Z,61.00
2019-04-11T16:43:43.240Z,61.20
2019-04-11T16:46:25.387Z,60.20
2019-04-11T16:48:55.906Z,59.70
2019-04-11T16:51:30.664Z,60.00
2019-04-11T16:53:54.861Z,59.70
2019-04-11T16:56:23.321Z,58.60
2019-04-11T16:58:52.040Z,58.50
2019-04-11T17:01:20.694Z,58.70
2019-04-11T17:03:54.865Z,59.60
2019-04-11T17:06:23.780Z,61.30
2019-04-11T17:08:56.315Z,61.60
2019-04-11T17:11:26.871Z,62.80
2019-04-11T17:13:57.448Z,62.30
2019-04-11T17:16:25.389Z,62.70
2019-04-11T17:18:53.839Z,63.40
2019-04-11T17:21:23.336Z,63.90
2019-04-11T17:23:51.930Z,64.70
2019-04-11T17:26:22.911Z,64.60
2019-04-11T17:28:53.545Z,65.00
2019-04-11T17:31:21.032Z,65.40
2019-04-11T17:33:49.618Z,65.10
2019-04-11T17:36:18.510Z,65.10
2019-04-11T17:38:46.980Z,65.90
2019-04-11T17:41:16.125Z,66.10
2019-04-11T17:43:46.778Z,66.00
2019-04-11T17:46:14.786Z,65.70
2019-04-11T17:48:43.266Z,66.60
2019-04-11T17:51:11.738Z,66.40
2019-04-11T17:53:40.205Z,66.70
2019-04-11T17:56:08.648Z,66.30
2019-04-11T17:58:37.108Z,66.00
2019-04-11T18:01:07.344Z,66.30
2019-04-11T18:03:35.907Z,66.80
2019-04-11T18:06:04.746Z,66.90
2019-04-11T18:08:33.188Z,67.30
2019-04-11T18:11:01.946Z,67.00
2019-04-11T18:13:31.548Z,68.10
2019-04-11T18:16:01.245Z,68.40
2019-04-11T18:18:34.888Z,68.50
2019-04-11T18:21:01.307Z,68.70
2019-04-11T18:23:29.768Z,66.30
2019-04-11T18:25:58.237Z,65.70
2019-04-11T18:28:26.958Z,64.70
2019-04-11T18:30:55.429Z,64.40
2019-04-11T18:33:23.955Z,64.80
2019-04-11T18:35:52.425Z,64.70
2019-04-11T18:38:20.874Z,65.10
2019-04-11T18:40:49.617Z,65.40
2019-04-11T18:43:18.108Z,65.60
2019-04-11T18:45:46.593Z,64.10
2019-04-11T18:48:15.037Z,62.80
2019-04-11T18:50:43.822Z,63.30
2019-04-11T18:53:12.293Z,63.30
2019-04-11T18:55:40.801Z,63.80
2019-04-11T18:58:09.648Z,64.30
2019-04-11T19:00:38.934Z,63.70
2019-04-11T19:03:08.017Z,64.30
2019-04-11T19:05:38.278Z,64.10
2019-04-11T19:08:07.011Z,64.80
2019-04-11T19:10:35.464Z,65.10
2019-04-11T19:13:04.444Z,65.70
2019-04-11T19:15:32.899Z,65.40
2019-04-11T19:18:06.738Z,65.40
2019-04-11T19:20:32.061Z,66.00
2019-04-11T19:23:00.599Z,66.60
2019-04-11T19:25:31.496Z,66.60
2019-04-11T19:27:59.466Z,66.50
2019-04-11T19:30:28.188Z,66.80
2019-04-11T19:32:56.644Z,66.80
2019-04-11T19:35:25.215Z,67.30
2019-04-11T19:37:53.729Z,67.60
2019-04-11T19:40:22.211Z,67.90
2019-04-11T19:42:50.659Z,68.30
2019-04-11T19:45:20.213Z,68.60
2019-04-11T19:47:51.724Z,69.00
2019-04-11T19:50:19.154Z,68.90
2019-04-11T19:52:47.605Z,69.60
2019-04-11T19:55:34.673Z,69.60
2019-04-11T19:58:03.488Z,69.80
2019-04-11T20:00:32.288Z,69.60
2019-04-11T20:03:00.743Z,68.90
2019-04-11T20:05:29.288Z,69.10
2019-04-11T20:07:57.729Z,68.90
2019-04-11T20:10:26.203Z,68.90
2019-04-11T20:12:54.667Z,69.30
2019-04-11T20:15:23.163Z,69.30
2019-04-11T20:17:52.211Z,69.70
2019-04-11T20:20:20.751Z,70.40
2019-04-11T20:22:58.809Z,71.00
2019-04-11T20:25:19.709Z,71.30
2019-04-11T20:27:50.765Z,71.20
2019-04-11T20:30:18.327Z,70.70
2019-04-11T20:32:46.797Z,71.20
2019-04-11T20:35:15.237Z,71.10
2019-04-11T20:37:44.726Z,70.40
2019-04-11T20:40:17.220Z,70.20
2019-04-11T20:42:44.307Z,70.20
2019-04-11T20:45:12.811Z,68.90
2019-04-11T20:47:41.273Z,67.60
2019-04-11T20:50:09.799Z,67.80
2019-04-11T20:52:38.274Z,67.30
2019-04-11T20:55:09.181Z,66.10
2019-04-11T20:57:37.418Z,67.00
2019-04-11T21:00:12.057Z,66.20
2019-04-11T21:02:38.512Z,66.10
2019-04-11T21:05:07.041Z,66.00
2019-04-11T21:07:35.769Z,66.90
2019-04-11T21:10:06.480Z,67.20
2019-04-11T21:12:37.082Z,67.30
2019-04-11T21:15:07.259Z,66.50
2019-04-11T21:17:35.788Z,67.30
2019-04-11T21:20:06.645Z,67.30
2019-04-11T21:22:35.125Z,67.00
2019-04-11T21:25:04.130Z,68.30
2019-04-11T21:27:32.887Z,66.80
2019-04-11T21:30:01.410Z,67.30
2019-04-11T21:32:31.925Z,68.10
2019-04-11T21:35:02.378Z,67.70
2019-04-11T21:37:30.950Z,67.50
2019-04-11T21:39:59.429Z,66.80
2019-04-11T21:42:28.158Z,67.20
2019-04-11T21:44:56.622Z,67.00
2019-04-11T21:47:25.069Z,67.20
2019-04-11T21:49:53.534Z,67.20
2019-04-11T21:52:21.983Z,67.30
2019-04-11T21:54:50.475Z,67.80
2019-04-11T21:57:19.274Z,67.80
2019-04-11T21:59:51.236Z,67.70
2019-04-11T22:02:18.436Z,68.00
2019-04-11T22:04:46.951Z,67.90
2019-04-11T22:07:15.659Z,67.60
2019-04-11T22:09:44.407Z,68.00
2019-04-11T22:12:12.860Z,67.80
2019-04-11T22:14:42.541Z,67.60
2019-04-11T22:17:14.896Z,67.50
2019-04-11T22:19:45.481Z,67.00
2019-04-11T22:22:11.510Z,67.10
2019-04-11T22:24:40.232Z,66.30
2019-04-11T22:27:08.949Z,66.60
2019-04-11T22:29:37.403Z,66.80
2019-04-11T22:32:06.126Z,66.70
2019-04-11T22:34:45.601Z,66.20
2019-04-11T22:37:14.162Z,67.10
2019-04-11T22:39:42.617Z,67.80
2019-04-11T22:42:11.219Z,68.20
2019-04-11T22:44:39.667Z,68.30
2019-04-11T22:47:08.693Z,67.80
2019-04-11T22:49:39.299Z,67.30
2019-04-11T22:52:07.927Z,66.50
2019-04-11T22:54:36.379Z,66.30
2019-04-11T22:57:04.904Z,66.30
2019-04-11T22:59:34.638Z,66.00
2019-04-11T23:02:07.920Z,66.60
2019-04-11T23:04:36.646Z,66.70
2019-04-11T23:07:05.137Z,66.60
2019-04-11T23:09:33.633Z,66.30
2019-04-11T23:12:02.333Z,65.10
2019-04-11T23:14:31.874Z,64.80
2019-04-11T23:17:00.579Z,64.00
2019-04-11T23:19:29.039Z,64.10
2019-04-11T23:21:57.496Z,64.30
2019-04-11T23:24:26.222Z,64.50
2019-04-11T23:26:54.946Z,64.30
2019-04-11T23:29:23.421Z,64.80
2019-04-11T23:31:51.873Z,65.50
2019-04-11T23:34:22.096Z,65.30
2019-04-11T23:36:51.217Z,65.90
2019-04-11T23:39:22.706Z,65.80
2019-04-11T23:41:50.476Z,65.90
2019-04-11T23:44:20.371Z,64.40
2019-04-11T23:46:51.741Z,64.50
2019-04-11T23:49:19.604Z,64.80
2019-04-11T23:51:51.133Z,63.50
2019-04-11T23:54:23.221Z,63.50
2019-04-11T23:56:50.301Z,63.70
2019-04-11T23:59:19.013Z,64.10
